Time;durP1;ratioP1;P1;durP2;ratioP2;P2;SDS_P1;SDS_P2;PMS_P1;PMS_P2;Temp;Humidity;BMP_temperature;BMP_pressure;BME280_temperature;BME280_humidity;BME280_pressure;Samples;Min_cycle;Max_cycle;Signal;HPM_P1;HPM_P2
2021/06/19 00:11:53;;;;;;;25.48;4.40;;;26.80;57.30;;;;;;5121557;27;27870;-77
2021/06/19 00:14:40;;;;;;;16.17;4.25;;;26.80;56.10;;;;;;5125265;27;27566;-85
2021/06/19 00:17:28;;;;;;;13.95;3.92;;;26.80;56.30;;;;;;5124753;27;27406;-76
2021/06/19 00:20:23;;;;;;;16.90;3.38;;;26.80;56.40;;;;;;5125319;27;27373;-79
2021/06/19 00:23:10;;;;;;;12.30;3.97;;;26.70;57.30;;;;;;5107988;27;27232;-88
2021/06/19 00:26:03;;;;;;;16.70;3.92;;;26.70;57.80;;;;;;5124990;27;27508;-82
2021/06/19 00:28:52;;;;;;;11.50;4.13;;;26.70;58.30;;;;;;5108179;27;27333;-79
2021/06/19 00:31:39;;;;;;;8.27;4.25;;;26.60;58.50;;;;;;5106955;27;27458;-78
2021/06/19 00:34:26;;;;;;;13.13;3.63;;;26.60;58.90;;;;;;5110222;27;27511;-76
2021/06/19 00:37:15;;;;;;;11.95;3.67;;;26.60;58.70;;;;;;5125581;27;27428;-78
2021/06/19 00:40:01;;;;;;;8.13;4.22;;;26.50;58.50;;;;;;5125394;27;27587;-76
2021/06/19 00:42:56;;;;;;;15.85;3.92;;;26.50;59.00;;;;;;5125189;27;27440;-78
2021/06/19 00:45:40;;;;;;;9.25;4.03;;;26.40;59.10;;;;;;5125249;27;27431;-77
2021/06/19 00:48:26;;;;;;;8.10;4.05;;;26.40;59.30;;;;;;5106175;27;27637;-78
2021/06/19 00:51:10;;;;;;;18.17;5.07;;;26.40;59.60;;;;;;5109716;27;27474;-77
2021/06/19 00:53:55;;;;;;;14.27;5.18;;;26.30;59.80;;;;;;5120906;27;27331;-77
2021/06/19 00:56:39;;;;;;;7.07;3.88;;;26.30;60.20;;;;;;5123913;27;27962;-76
2021/06/19 00:59:29;;;;;;;7.60;3.88;;;26.20;60.40;;;;;;5124066;27;27411;-70
2021/06/19 01:02:13;;;;;;;9.93;3.65;;;26.20;60.60;;;;;;5124872;27;27488;-75
2021/06/19 01:04:58;;;;;;;9.32;3.92;;;26.20;60.90;;;;;;5124566;27;27493;-76
2021/06/19 01:07:42;;;;;;;6.75;3.60;;;26.10;61.30;;;;;;5124164;27;27498;-77
2021/06/19 01:10:28;;;;;;;9.30;4.07;;;26.10;61.60;;;;;;5124728;27;27434;-71
2021/06/19 01:13:13;;;;;;;10.95;5.03;;;26.00;62.00;;;;;;5124515;27;27419;-70
2021/06/19 01:15:58;;;;;;;12.70;5.05;;;26.00;62.60;;;;;;5123522;27;27616;-72
2021/06/19 01:18:43;;;;;;;15.98;5.45;;;25.90;62.80;;;;;;5121316;27;27948;-79
2021/06/19 01:21:31;;;;;;;9.73;4.55;;;25.90;63.00;;;;;;5123755;27;27456;-78
2021/06/19 01:24:16;;;;;;;13.15;4.88;;;25.80;63.40;;;;;;5124752;27;27394;-77
2021/06/19 01:27:00;;;;;;;15.07;4.78;;;25.80;63.40;;;;;;5123819;27;27468;-77
2021/06/19 01:29:44;;;;;;;11.80;4.80;;;25.80;63.80;;;;;;5105928;27;27417;-76
2021/06/19 01:32:31;;;;;;;17.52;5.90;;;25.80;64.00;;;;;;5124451;27;27418;-75
2021/06/19 01:35:16;;;;;;;19.23;4.85;;;25.70;64.10;;;;;;5124320;27;27498;-76
2021/06/19 01:38:01;;;;;;;8.82;4.53;;;25.70;64.20;;;;;;5120882;27;27370;-75
2021/06/19 01:40:46;;;;;;;7.93;4.40;;;25.70;64.60;;;;;;5124173;27;27343;-75
2021/06/19 01:43:31;;;;;;;11.73;5.35;;;25.60;65.00;;;;;;5123946;27;27416;-74
2021/06/19 01:46:15;;;;;;;12.75;5.75;;;25.50;65.10;;;;;;5124330;27;27441;-75
2021/06/19 01:49:01;;;;;;;9.93;4.68;;;25.50;65.60;;;;;;5124307;27;26901;-75
2021/06/19 01:51:45;;;;;;;13.77;5.55;;;25.40;65.50;;;;;;5124225;27;27437;-75
2021/06/19 01:54:38;;;;;;;12.90;4.72;;;25.30;65.80;;;;;;5123856;27;27399;-74
2021/06/19 01:57:22;;;;;;;14.48;5.03;;;25.20;66.00;;;;;;5123955;27;27475;-75
2021/06/19 02:00:11;;;;;;;16.88;4.70;;;25.20;65.90;;;;;;5123834;27;27406;-74
2021/06/19 02:02:56;;;;;;;14.20;5.60;;;25.20;66.00;;;;;;5123830;27;27429;-74
2021/06/19 02:05:40;;;;;;;10.23;5.45;;;25.10;66.10;;;;;;5124072;27;27356;-74
2021/06/19 02:08:25;;;;;;;13.10;5.22;;;25.10;66.10;;;;;;5124084;27;27426;-73
2021/06/19 02:11:10;;;;;;;13.68;5.78;;;25.10;66.00;;;;;;5123388;27;27414;-74
2021/06/19 02:13:54;;;;;;;15.85;4.75;;;25.00;66.10;;;;;;5124425;27;27521;-74
2021/06/19 02:16:39;;;;;;;15.35;5.65;;;25.00;66.10;;;;;;5124403;27;27425;-74
2021/06/19 02:19:24;;;;;;;8.88;4.72;;;25.00;66.40;;;;;;5124009;27;27480;-73
2021/06/19 02:22:09;;;;;;;11.73;4.72;;;24.90;66.20;;;;;;5123980;27;27448;-74
2021/06/19 02:24:53;;;;;;;15.25;7.18;;;24.90;66.50;;;;;;5123875;27;28013;-73
2021/06/19 02:27:49;;;;;;;8.90;5.03;;;24.90;66.40;;;;;;5122774;27;27568;-73
2021/06/19 02:30:45;;;;;;;15.73;5.45;;;24.80;66.40;;;;;;5122632;27;27485;-74
2021/06/19 02:33:29;;;;;;;13.52;5.80;;;24.80;66.40;;;;;;5124244;27;27410;-74
2021/06/19 02:36:17;;;;;;;8.55;4.90;;;24.80;66.60;;;;;;5127223;27;27641;-73
2021/06/19 02:39:02;;;;;;;15.65;5.55;;;24.80;66.70;;;;;;5126856;27;27404;-73
2021/06/19 02:41:46;;;;;;;14.50;4.85;;;24.70;66.70;;;;;;5126906;27;27424;-74
2021/06/19 02:44:31;;;;;;;13.38;5.00;;;24.70;66.70;;;;;;5126785;27;27347;-74
2021/06/19 02:47:16;;;;;;;12.20;4.88;;;24.60;66.90;;;;;;5126591;27;27873;-74
2021/06/19 02:50:01;;;;;;;8.63;5.03;;;24.60;67.70;;;;;;5125977;27;27368;-74
2021/06/19 02:52:45;;;;;;;11.40;4.82;;;24.60;66.90;;;;;;5125766;27;27426;-74
2021/06/19 02:55:32;;;;;;;15.88;5.78;;;24.60;66.90;;;;;;5126719;27;27393;-73
2021/06/19 02:58:16;;;;;;;11.07;4.78;;;24.50;67.00;;;;;;5126825;27;28080;-74
2021/06/19 03:01:01;;;;;;;14.75;5.43;;;24.50;67.10;;;;;;5126481;27;27417;-74
2021/06/19 03:03:46;;;;;;;9.48;4.65;;;24.50;67.10;;;;;;5125650;27;27410;-74
2021/06/19 03:06:31;;;;;;;12.65;4.80;;;24.50;67.30;;;;;;5126168;27;27604;-74
2021/06/19 03:09:15;;;;;;;12.98;4.82;;;24.50;67.30;;;;;;5126641;27;27485;-74
2021/06/19 03:12:00;;;;;;;9.43;4.53;;;24.50;67.40;;;;;;5125687;27;27532;-74
2021/06/19 03:14:44;;;;;;;11.43;3.80;;;24.40;67.50;;;;;;5126274;27;27508;-74
2021/06/19 03:17:29;;;;;;;11.88;4.80;;;24.40;67.40;;;;;;5125813;27;27427;-74
2021/06/19 03:20:14;;;;;;;16.58;4.57;;;24.40;67.30;;;;;;5126545;27;27461;-74
2021/06/19 03:23:00;;;;;;;7.88;4.65;;;24.40;67.40;;;;;;5126472;27;27453;-74
2021/06/19 03:25:46;;;;;;;7.00;3.92;;;24.40;67.60;;;;;;5125728;27;27468;-74
2021/06/19 03:28:30;;;;;;;10.32;4.93;;;24.30;67.70;;;;;;5125413;27;27367;-74
2021/06/19 03:31:15;;;;;;;16.90;4.57;;;24.30;67.60;;;;;;5126094;27;27474;-74
2021/06/19 03:34:02;;;;;;;7.95;4.28;;;24.30;67.70;;;;;;5125451;27;27482;-74
2021/06/19 03:36:47;;;;;;;10.25;4.32;;;24.30;67.80;;;;;;5126050;27;27374;-74
2021/06/19 03:39:33;;;;;;;7.45;3.97;;;24.20;67.70;;;;;;5126015;27;27402;-74
2021/06/19 03:42:17;;;;;;;10.65;4.22;;;24.20;67.80;;;;;;5126234;27;27404;-75
2021/06/19 03:45:02;;;;;;;8.05;4.10;;;24.20;67.80;;;;;;5126239;27;27409;-75
2021/06/19 03:47:48;;;;;;;8.25;4.50;;;24.20;67.90;;;;;;5093032;27;27405;-74
2021/06/19 03:50:33;;;;;;;9.40;4.20;;;24.20;68.10;;;;;;5122886;27;27340;-75
2021/06/19 03:53:17;;;;;;;7.72;4.53;;;24.20;68.10;;;;;;5122859;27;27361;-75
2021/06/19 03:56:01;;;;;;;11.05;5.50;;;24.20;68.30;;;;;;5122419;27;27354;-75
2021/06/19 03:58:46;;;;;;;7.90;4.18;;;24.10;68.30;;;;;;5122708;27;27349;-74
2021/06/19 04:01:30;;;;;;;8.48;4.13;;;24.10;68.50;;;;;;5124110;27;27658;-72
2021/06/19 04:04:15;;;;;;;11.80;4.80;;;24.10;68.70;;;;;;5125566;27;27451;-75
2021/06/19 04:06:59;;;;;;;10.40;4.47;;;24.10;68.80;;;;;;5125468;27;27415;-74
2021/06/19 04:09:48;;;;;;;11.43;4.70;;;24.10;68.90;;;;;;5125838;27;27473;-74
2021/06/19 04:12:33;;;;;;;10.05;4.38;;;24.10;69.00;;;;;;5125735;27;27370;-74
2021/06/19 04:15:17;;;;;;;12.90;4.75;;;24.10;69.30;;;;;;5125649;27;27450;-74
2021/06/19 04:18:02;;;;;;;8.00;4.57;;;24.10;69.20;;;;;;5125612;27;27521;-75
2021/06/19 04:20:47;;;;;;;13.23;4.13;;;24.20;69.20;;;;;;5125332;27;27413;-74
2021/06/19 04:23:31;;;;;;;10.38;5.18;;;24.20;69.50;;;;;;5125312;27;27480;-74
2021/06/19 04:26:16;;;;;;;10.15;4.45;;;24.20;69.60;;;;;;5124906;27;27336;-75
2021/06/19 04:29:01;;;;;;;8.30;4.50;;;24.10;69.60;;;;;;5124962;27;27370;-74
2021/06/19 04:31:46;;;;;;;16.42;5.60;;;24.20;69.70;;;;;;5125191;27;27355;-74
2021/06/19 04:34:30;;;;;;;11.73;4.60;;;24.20;70.10;;;;;;5124704;27;27499;-73
2021/06/19 04:37:15;;;;;;;8.88;4.30;;;24.20;70.00;;;;;;5125085;27;27423;-74
2021/06/19 04:40:27;;;;;;;6.60;4.80;;;24.20;69.90;;;;;;5124902;27;27453;-72
2021/06/19 04:43:11;;;;;;;12.15;5.22;;;24.20;70.00;;;;;;5121950;27;27403;-73
2021/06/19 04:45:55;;;;;;;10.15;5.07;;;24.20;70.10;;;;;;5124889;27;27358;-74
2021/06/19 04:48:41;;;;;;;12.98;5.78;;;24.20;70.10;;;;;;5124958;27;27901;-74
2021/06/19 04:51:25;;;;;;;7.57;4.40;;;24.20;70.20;;;;;;5123933;27;27336;-74
2021/06/19 04:54:10;;;;;;;15.70;5.53;;;24.20;70.40;;;;;;5123988;27;27408;-73
2021/06/19 04:56:55;;;;;;;9.55;4.55;;;24.20;70.50;;;;;;5107595;27;27366;-74
2021/06/19 04:59:39;;;;;;;14.50;5.22;;;24.20;70.70;;;;;;5106328;27;27848;-74
2021/06/19 05:02:24;;;;;;;10.55;4.65;;;24.30;70.70;;;;;;5123843;27;27386;-74
2021/06/19 05:05:09;;;;;;;9.90;4.75;;;24.30;70.90;;;;;;5123818;27;27397;-74
2021/06/19 05:07:53;;;;;;;13.52;5.60;;;24.30;70.90;;;;;;5123736;27;27348;-75
2021/06/19 05:10:38;;;;;;;8.75;4.30;;;24.30;70.90;;;;;;5124390;27;27938;-75
2021/06/19 05:13:25;;;;;;;9.07;4.53;;;24.30;71.10;;;;;;5125033;27;27391;-75
2021/06/19 05:16:09;;;;;;;9.88;5.95;;;24.30;71.30;;;;;;5124697;27;27284;-75
2021/06/19 05:18:54;;;;;;;13.65;5.80;;;24.40;71.40;;;;;;5124641;27;27347;-75
2021/06/19 05:21:39;;;;;;;12.30;5.60;;;24.40;71.20;;;;;;5124719;27;27369;-74
2021/06/19 05:24:24;;;;;;;16.10;6.18;;;24.50;71.10;;;;;;5124058;27;27409;-75
2021/06/19 05:27:08;;;;;;;14.52;6.40;;;24.60;71.20;;;;;;5107435;27;27456;-75
2021/06/19 05:29:53;;;;;;;10.18;5.55;;;24.60;71.20;;;;;;5123757;27;27397;-74
2021/06/19 05:32:37;;;;;;;14.07;5.45;;;24.60;70.80;;;;;;5120274;27;27307;-74
2021/06/19 05:35:22;;;;;;;8.25;4.75;;;24.60;70.80;;;;;;5123602;27;27406;-72
2021/06/19 05:38:06;;;;;;;13.95;5.53;;;24.70;70.80;;;;;;5124331;27;27378;-75
2021/06/19 05:40:51;;;;;;;14.10;5.88;;;24.70;71.10;;;;;;5120353;27;27331;-76
2021/06/19 05:43:36;;;;;;;16.63;5.85;;;24.80;71.20;;;;;;5124342;27;27335;-75
2021/06/19 05:46:21;;;;;;;19.30;7.03;;;24.70;71.10;;;;;;5124293;27;27536;-74
2021/06/19 05:49:05;;;;;;;13.38;5.85;;;24.80;71.10;;;;;;5124375;27;27426;-75
2021/06/19 05:51:50;;;;;;;10.13;5.15;;;24.80;70.90;;;;;;5120824;27;27406;-75
2021/06/19 05:54:37;;;;;;;19.88;8.85;;;24.80;70.80;;;;;;5123876;27;27495;-75
2021/06/19 05:57:22;;;;;;;18.60;7.28;;;25.00;71.20;;;;;;5119767;27;27328;-75
2021/06/19 06:00:08;;;;;;;17.55;6.30;;;25.00;70.90;;;;;;5121003;27;27339;-75
2021/06/19 06:02:56;;;;;;;10.25;6.03;;;25.20;71.40;;;;;;5123848;27;27418;-75
2021/06/19 06:05:40;;;;;;;12.23;5.45;;;25.30;71.40;;;;;;5123900;27;27323;-75
2021/06/19 06:08:25;;;;;;;17.90;5.55;;;25.50;71.30;;;;;;5120156;27;27511;-75
2021/06/19 06:11:09;;;;;;;12.15;5.63;;;25.60;71.00;;;;;;5127006;27;27445;-75
2021/06/19 06:13:54;;;;;;;17.45;5.60;;;25.80;71.70;;;;;;5127659;27;27340;-75
2021/06/19 06:16:39;;;;;;;13.70;4.95;;;26.00;70.30;;;;;;5127281;27;27345;-75
2021/06/19 06:19:24;;;;;;;10.35;5.20;;;26.10;70.00;;;;;;5126756;27;27443;-75
2021/06/19 06:22:09;;;;;;;12.43;5.07;;;26.20;69.40;;;;;;5124074;27;27347;-75
2021/06/19 06:24:54;;;;;;;15.95;5.53;;;26.30;69.00;;;;;;5124991;27;27374;-76
2021/06/19 06:27:39;;;;;;;11.35;5.30;;;26.50;69.30;;;;;;5127195;27;27870;-75
2021/06/19 06:30:24;;;;;;;18.08;5.75;;;26.60;68.90;;;;;;5127792;27;27491;-76
2021/06/19 06:33:09;;;;;;;15.32;6.78;;;26.70;68.50;;;;;;5127808;27;26901;-75
2021/06/19 06:35:54;;;;;;;16.15;6.07;;;26.80;68.30;;;;;;5127755;27;27376;-75
2021/06/19 06:38:39;;;;;;;9.98;4.93;;;26.90;68.80;;;;;;5127658;27;27327;-75
2021/06/19 06:41:24;;;;;;;13.32;5.47;;;27.00;68.50;;;;;;5127603;27;27377;-75
2021/06/19 06:44:09;;;;;;;14.32;4.78;;;27.00;69.10;;;;;;5127671;27;27389;-73
2021/06/19 06:46:53;;;;;;;14.23;5.22;;;27.00;69.00;;;;;;5123349;27;27371;-75
2021/06/19 06:49:38;;;;;;;16.13;5.05;;;27.00;68.80;;;;;;5126730;27;27374;-75
2021/06/19 06:52:22;;;;;;;8.38;5.45;;;27.00;69.50;;;;;;5127460;27;27394;-75
2021/06/19 06:55:08;;;;;;;12.07;5.40;;;27.00;69.40;;;;;;5127538;27;27390;-75
2021/06/19 06:57:52;;;;;;;13.05;4.97;;;26.90;69.70;;;;;;5127862;27;27353;-75
2021/06/19 07:00:37;;;;;;;11.95;5.15;;;26.90;70.60;;;;;;5127730;27;27386;-76
2021/06/19 07:03:23;;;;;;;12.48;5.50;;;27.00;71.10;;;;;;5127558;27;27390;-75
2021/06/19 07:06:08;;;;;;;20.35;6.05;;;27.20;69.70;;;;;;5127929;27;27365;-76
2021/06/19 07:08:52;;;;;;;12.32;5.85;;;27.40;68.90;;;;;;5127737;27;27397;-75
2021/06/19 07:11:37;;;;;;;11.30;5.55;;;27.60;68.10;;;;;;5127561;27;27337;-76
2021/06/19 07:14:22;;;;;;;16.30;5.70;;;27.80;67.30;;;;;;5127276;27;27378;-76
2021/06/19 07:17:09;;;;;;;13.75;5.38;;;28.00;67.30;;;;;;5127294;27;27335;-76
2021/06/19 07:19:53;;;;;;;15.15;5.40;;;28.20;67.30;;;;;;5123733;27;27395;-76
2021/06/19 07:22:38;;;;;;;16.23;6.80;;;28.40;65.90;;;;;;5127213;27;27929;-77
2021/06/19 07:25:22;;;;;;;12.32;5.25;;;28.50;66.30;;;;;;5126701;27;27481;-73
2021/06/19 07:28:07;;;;;;;11.38;5.20;;;28.70;65.50;;;;;;5126665;27;27369;-76
2021/06/19 07:30:51;;;;;;;19.92;5.50;;;28.90;66.00;;;;;;5126912;27;27322;-76
2021/06/19 07:33:36;;;;;;;16.20;5.60;;;29.00;65.80;;;;;;5108191;27;27395;-76
2021/06/19 07:36:21;;;;;;;14.88;5.20;;;29.10;64.50;;;;;;5122705;27;27428;-76
2021/06/19 07:39:05;;;;;;;13.43;5.10;;;29.30;63.90;;;;;;5126918;27;27427;-77
2021/06/19 07:41:50;;;;;;;13.70;5.43;;;29.40;64.30;;;;;;5123424;27;27453;-77
2021/06/19 07:44:34;;;;;;;17.02;4.95;;;29.50;63.70;;;;;;5126679;27;27411;-77
2021/06/19 07:47:19;;;;;;;17.02;5.18;;;29.60;62.30;;;;;;5125580;27;27434;-77
2021/06/19 07:50:05;;;;;;;12.80;4.45;;;29.70;62.70;;;;;;5126677;27;27456;-77
2021/06/19 07:52:50;;;;;;;18.00;5.45;;;29.80;62.30;;;;;;5126536;27;27411;-77
2021/06/19 07:55:34;;;;;;;16.55;5.20;;;30.00;62.70;;;;;;5126762;27;27433;-76
2021/06/19 07:58:19;;;;;;;17.88;4.95;;;30.10;61.30;;;;;;5125911;27;27491;-77
2021/06/19 08:01:03;;;;;;;18.95;5.07;;;30.30;61.90;;;;;;5126695;27;27380;-76
2021/06/19 08:03:48;;;;;;;20.08;4.95;;;30.40;61.40;;;;;;5126262;27;27324;-75
2021/06/19 08:06:32;;;;;;;20.52;5.38;;;30.50;61.00;;;;;;5124935;27;28015;-75
2021/06/19 08:09:18;;;;;;;16.30;5.13;;;30.70;60.30;;;;;;5122197;27;27422;-74
2021/06/19 08:12:03;;;;;;;15.18;5.43;;;30.80;60.80;;;;;;5126498;27;27415;-75
2021/06/19 08:14:48;;;;;;;20.52;5.75;;;31.00;61.10;;;;;;5126664;27;27406;-76
2021/06/19 08:17:32;;;;;;;12.57;4.53;;;31.10;59.60;;;;;;5126543;27;27437;-75
2021/06/19 08:20:18;;;;;;;15.02;4.90;;;31.30;58.80;;;;;;5126562;27;27465;-76
2021/06/19 08:23:04;;;;;;;19.35;5.03;;;31.40;57.90;;;;;;5126279;27;27453;-75
2021/06/19 08:25:48;;;;;;;23.98;6.07;;;31.40;57.90;;;;;;5126010;27;27390;-75
2021/06/19 08:28:34;;;;;;;12.90;4.20;;;31.60;58.90;;;;;;5126550;27;27452;-74
2021/06/19 08:31:19;;;;;;;11.25;4.32;;;31.80;57.90;;;;;;5125384;27;27411;-75
2021/06/19 08:34:05;;;;;;;16.50;4.93;;;31.80;57.90;;;;;;5125832;27;27468;-74
2021/06/19 08:36:50;;;;;;;15.85;4.97;;;31.90;58.40;;;;;;5126028;27;27484;-74
2021/06/19 08:39:35;;;;;;;14.52;5.43;;;32.10;58.30;;;;;;5125211;27;27989;-74
2021/06/19 08:42:19;;;;;;;18.48;5.50;;;32.20;58.20;;;;;;5125665;27;27445;-74
2021/06/19 08:45:05;;;;;;;19.40;5.25;;;32.30;57.00;;;;;;5107277;27;27437;-73
2021/06/19 08:47:49;;;;;;;15.23;4.60;;;32.30;55.90;;;;;;5125587;27;27417;-73
2021/06/19 08:50:37;;;;;;;17.63;5.70;;;32.40;56.10;;;;;;5124862;27;27496;-73
2021/06/19 08:53:21;;;;;;;14.68;5.40;;;32.50;56.20;;;;;;5124796;27;27425;-73
2021/06/19 08:56:06;;;;;;;12.15;4.15;;;32.60;55.50;;;;;;5125855;27;27411;-73
2021/06/19 08:58:51;;;;;;;16.98;4.75;;;32.70;55.60;;;;;;5125827;27;27469;-72
2021/06/19 09:01:38;;;;;;;15.77;5.53;;;32.80;56.00;;;;;;5125067;27;27462;-73
2021/06/19 09:04:23;;;;;;;11.68;4.43;;;32.90;55.60;;;;;;5125362;27;27393;-72
2021/06/19 09:07:07;;;;;;;18.23;5.38;;;33.10;56.50;;;;;;5125280;27;27374;-72
2021/06/19 09:09:51;;;;;;;16.00;4.35;;;33.20;56.50;;;;;;5124611;27;27425;-73
2021/06/19 09:12:36;;;;;;;12.70;5.07;;;33.40;56.60;;;;;;5106806;27;27476;-72
2021/06/19 09:15:21;;;;;;;11.77;5.63;;;33.50;56.90;;;;;;5109980;27;27431;-72
2021/06/19 09:18:27;;;;;;;12.45;5.43;;;33.70;56.40;;;;;;5125224;27;27414;-72
2021/06/19 09:21:12;;;;;;;11.73;4.95;;;33.90;56.60;;;;;;5121111;27;27327;-72
2021/06/19 09:23:57;;;;;;;19.98;4.78;;;34.00;56.10;;;;;;5125064;27;27873;-73
2021/06/19 09:26:41;;;;;;;15.38;5.65;;;34.10;55.40;;;;;;5124004;27;27547;-72
2021/06/19 09:29:27;;;;;;;12.70;5.10;;;34.30;56.50;;;;;;5124899;27;27689;-72
2021/06/19 09:32:12;;;;;;;13.15;5.18;;;34.40;55.20;;;;;;5110077;27;27425;-70
2021/06/19 09:35:30;;;;;;;11.75;4.32;;;34.50;55.70;;;;;;5125246;27;27856;-71
2021/06/19 09:38:15;;;;;;;12.93;5.55;;;34.60;57.60;;;;;;5098315;27;27453;-72
2021/06/19 09:41:00;;;;;;;17.00;5.53;;;34.70;56.10;;;;;;5121871;27;27335;-70
2021/06/19 09:43:45;;;;;;;18.45;5.65;;;34.90;55.30;;;;;;5127321;27;26885;-70
2021/06/19 09:46:29;;;;;;;13.20;4.90;;;34.90;56.60;;;;;;5128323;27;27852;-70
2021/06/19 09:49:15;;;;;;;12.23;4.93;;;34.90;54.30;;;;;;5127908;27;27312;-70
2021/06/19 09:52:00;;;;;;;22.73;5.90;;;35.00;54.90;;;;;;5128461;27;27348;-70
2021/06/19 09:54:59;;;;;;;12.27;5.25;;;35.00;53.80;;;;;;5127770;27;27376;-70
2021/06/19 09:57:48;;;;;;;16.17;5.25;;;35.10;52.00;;;;;;5128359;27;27418;-69
2021/06/19 10:00:38;;;;;;;11.00;5.13;;;35.10;52.50;;;;;;5128355;27;27318;-69
2021/06/19 10:03:22;;;;;;;18.60;5.85;;;35.10;52.10;;;;;;5128560;27;27613;-67
2021/06/19 10:06:07;;;;;;;11.32;4.85;;;35.10;51.30;;;;;;5128251;27;27472;-68
2021/06/19 10:08:52;;;;;;;12.38;4.63;;;35.10;51.70;;;;;;5127685;27;27449;-68
2021/06/19 10:11:38;;;;;;;12.98;5.22;;;35.00;51.40;;;;;;5128063;27;27504;-68
2021/06/19 10:14:24;;;;;;;12.70;5.47;;;35.00;51.50;;;;;;5127707;27;27429;-68
2021/06/19 10:17:08;;;;;;;13.93;5.13;;;35.10;51.40;;;;;;5124322;27;27418;-68
2021/06/19 10:19:54;;;;;;;13.32;5.60;;;35.10;50.40;;;;;;5112848;27;27976;-68
2021/06/19 10:22:40;;;;;;;10.13;4.85;;;35.10;52.60;;;;;;5126767;27;27528;-68
2021/06/19 10:25:27;;;;;;;14.00;5.07;;;35.20;53.10;;;;;;5127684;27;27445;-67
2021/06/19 10:28:11;;;;;;;17.17;5.10;;;35.30;51.10;;;;;;5127995;27;27405;-68
2021/06/19 10:30:56;;;;;;;15.18;4.80;;;35.20;49.50;;;;;;5112899;27;27443;-68
2021/06/19 10:33:41;;;;;;;14.00;5.35;;;35.20;50.10;;;;;;5123669;27;27552;-67
2021/06/19 10:36:38;;;;;;;12.02;5.15;;;35.20;50.70;;;;;;5128052;27;27512;-68
2021/06/19 10:39:43;;;;;;;15.50;4.90;;;35.20;50.20;;;;;;5128017;27;27410;-68
2021/06/19 10:42:32;;;;;;;18.63;4.85;;;35.20;50.80;;;;;;5127610;27;27365;-68
2021/06/19 10:45:22;;;;;;;6.93;4.13;;;35.20;50.00;;;;;;5127548;27;27475;-68
2021/06/19 10:48:15;;;;;;;9.75;4.45;;;35.20;49.70;;;;;;5127314;27;27410;-68
2021/06/19 10:51:20;;;;;;;14.43;4.70;;;35.20;52.00;;;;;;5127125;27;27414;-68
2021/06/19 10:54:11;;;;;;;11.98;4.80;;;35.20;50.60;;;;;;5126839;27;27919;-68
2021/06/19 10:56:59;;;;;;;19.02;6.13;;;35.20;51.20;;;;;;5127706;27;27367;-68
2021/06/19 10:59:44;;;;;;;13.10;4.95;;;35.20;50.20;;;;;;5127509;27;27455;-68
2021/06/19 11:02:48;;;;;;;15.23;5.20;;;35.20;50.30;;;;;;5127694;27;27450;-68
2021/06/19 11:05:42;;;;;;;14.48;4.95;;;35.20;52.00;;;;;;5127306;27;27485;-69
2021/06/19 11:08:27;;;;;;;13.80;5.38;;;35.30;51.40;;;;;;5126943;27;27473;-69
2021/06/19 11:11:12;;;;;;;11.43;4.70;;;35.30;52.40;;;;;;5127665;27;27451;-69
2021/06/19 11:13:56;;;;;;;10.57;4.55;;;35.40;51.80;;;;;;5126702;27;27581;-69
2021/06/19 11:16:43;;;;;;;15.63;4.28;;;35.50;53.40;;;;;;5126930;27;27852;-69
2021/06/19 11:19:39;;;;;;;14.80;3.80;;;35.70;55.00;;;;;;5122976;27;27484;-69
2021/06/19 11:22:26;;;;;;;15.40;4.78;;;35.90;52.50;;;;;;5127177;27;27473;-69
2021/06/19 11:25:35;;;;;;;16.63;4.63;;;36.00;48.90;;;;;;5127233;27;27411;-69
2021/06/19 11:28:20;;;;;;;13.77;4.47;;;36.00;46.80;;;;;;5126590;27;27379;-69
2021/06/19 11:31:08;;;;;;;15.23;3.67;;;35.90;47.70;;;;;;5127186;27;27385;-68
2021/06/19 11:33:54;;;;;;;12.82;5.07;;;35.90;48.90;;;;;;5126415;27;27539;-69
2021/06/19 11:36:39;;;;;;;18.67;4.55;;;35.90;47.70;;;;;;5127132;27;27460;-69
2021/06/19 11:39:31;;;;;;;19.20;4.80;;;35.90;46.80;;;;;;5126752;27;27860;-69
2021/06/19 11:42:15;;;;;;;13.93;5.22;;;35.90;48.40;;;;;;5126045;27;27405;-69
2021/06/19 11:45:00;;;;;;;12.63;4.55;;;35.80;48.60;;;;;;5126158;27;27354;-69
2021/06/19 11:47:47;;;;;;;11.57;4.18;;;35.80;47.80;;;;;;5126782;27;27334;-69
2021/06/19 11:50:36;;;;;;;14.93;4.88;;;35.80;50.30;;;;;;5126628;27;27431;-68
2021/06/19 11:53:27;;;;;;;16.38;5.15;;;35.80;48.60;;;;;;5126531;27;27465;-69
2021/06/19 11:56:28;;;;;;;15.25;4.72;;;35.80;48.00;;;;;;5126878;27;27476;-68
2021/06/19 11:59:16;;;;;;;12.40;4.70;;;35.80;46.90;;;;;;5125712;27;27397;-69
2021/06/19 12:02:01;;;;;;;12.93;4.50;;;35.70;45.80;;;;;;5126416;27;27996;-69
2021/06/19 12:04:45;;;;;;;13.98;4.45;;;35.60;45.60;;;;;;5126649;27;27372;-68
2021/06/19 12:07:30;;;;;;;10.63;4.80;;;35.60;46.30;;;;;;5124199;27;27395;-69
2021/06/19 12:10:26;;;;;;;15.48;5.20;;;35.60;49.70;;;;;;5111473;27;27324;-69
2021/06/19 12:13:11;;;;;;;14.82;4.80;;;35.60;51.00;;;;;;5123388;27;27384;-68
2021/06/19 12:15:56;;;;;;;14.15;5.30;;;35.70;50.90;;;;;;5126177;27;27544;-68
2021/06/19 12:18:42;;;;;;;10.88;4.50;;;35.70;53.80;;;;;;5126250;27;26906;-68
2021/06/19 12:21:34;;;;;;;15.95;5.03;;;35.80;55.40;;;;;;5126365;27;27613;-68
2021/06/19 12:24:19;;;;;;;14.32;5.80;;;35.90;53.20;;;;;;5126058;27;27370;-69
2021/06/19 12:27:05;;;;;;;14.23;4.78;;;36.00;51.40;;;;;;5123868;27;27345;-68
2021/06/19 12:29:53;;;;;;;15.68;5.50;;;36.00;51.40;;;;;;5107479;27;27344;-68
2021/06/19 12:32:42;;;;;;;13.77;5.10;;;36.00;52.90;;;;;;5126240;27;27457;-68
2021/06/19 12:35:27;;;;;;;13.93;4.63;;;35.90;49.80;;;;;;5125855;27;27476;-69
2021/06/19 12:38:12;;;;;;;9.55;4.68;;;35.90;51.90;;;;;;5125080;27;27422;-68
2021/06/19 12:40:57;;;;;;;14.02;5.15;;;35.80;51.30;;;;;;5110593;27;27401;-68
2021/06/19 12:43:52;;;;;;;12.90;5.22;;;35.80;50.60;;;;;;5126127;27;27349;-68
2021/06/19 12:46:37;;;;;;;13.52;4.85;;;35.80;54.70;;;;;;5125627;27;27424;-68
2021/06/19 12:49:21;;;;;;;13.80;5.47;;;35.80;51.60;;;;;;5093004;27;27411;-68
2021/06/19 12:52:06;;;;;;;14.63;4.80;;;35.80;54.00;;;;;;5124947;27;27514;-68
2021/06/19 12:55:11;;;;;;;11.15;5.53;;;35.80;52.60;;;;;;5125869;27;27476;-68
2021/06/19 12:58:05;;;;;;;15.30;5.63;;;35.80;53.60;;;;;;5125499;27;27422;-67
2021/06/19 13:00:53;;;;;;;12.73;5.68;;;35.70;49.70;;;;;;5121677;27;27423;-68
2021/06/19 13:03:38;;;;;;;11.00;4.97;;;35.70;49.80;;;;;;5125737;27;27432;-68
2021/06/19 13:06:39;;;;;;;11.60;6.05;;;35.70;52.20;;;;;;5125317;27;27332;-70
2021/06/19 13:09:24;;;;;;;19.20;5.68;;;35.70;49.00;;;;;;5125637;27;27839;-71
2021/06/19 13:12:09;;;;;;;13.90;5.47;;;35.60;43.50;;;;;;5125305;27;27430;-71
2021/06/19 13:15:10;;;;;;;15.00;5.38;;;35.40;41.70;;;;;;5124905;27;27419;-72
2021/06/19 13:17:56;;;;;;;13.73;5.25;;;35.30;41.70;;;;;;5125110;27;27388;-73
2021/06/19 13:20:41;;;;;;;20.45;5.70;;;35.30;43.00;;;;;;5125184;27;27344;-72
2021/06/19 13:23:25;;;;;;;19.13;5.80;;;35.20;42.00;;;;;;5125427;27;27449;-72
2021/06/19 13:26:12;;;;;;;15.95;6.50;;;35.00;43.30;;;;;;5124800;27;27338;-72
2021/06/19 13:29:05;;;;;;;15.30;5.50;;;34.90;42.70;;;;;;5124495;27;27812;-73
2021/06/19 13:31:50;;;;;;;19.85;6.35;;;34.90;43.10;;;;;;5124609;27;27388;-61
2021/06/19 13:34:35;;;;;;;12.52;5.97;;;34.90;42.20;;;;;;5124664;27;27388;-61
2021/06/19 13:37:19;;;;;;;19.92;5.93;;;34.90;41.90;;;;;;5121340;27;27315;-60
2021/06/19 13:40:07;;;;;;;14.13;5.78;;;34.90;43.30;;;;;;5122202;27;27324;-62
2021/06/19 13:42:55;;;;;;;18.90;5.97;;;34.90;44.40;;;;;;5124953;27;27875;-61
2021/06/19 13:45:40;;;;;;;13.05;5.82;;;34.80;45.80;;;;;;5125009;27;27403;-61
2021/06/19 13:48:25;;;;;;;13.02;5.70;;;34.80;46.70;;;;;;5124908;27;27473;-60
2021/06/19 13:51:10;;;;;;;14.50;4.88;;;34.70;47.80;;;;;;5125097;27;27388;-60
2021/06/19 13:53:55;;;;;;;15.60;5.72;;;34.70;48.10;;;;;;5124781;27;27504;-62
2021/06/19 13:56:40;;;;;;;15.45;6.03;;;34.60;48.50;;;;;;5124748;27;27411;-61
2021/06/19 13:59:26;;;;;;;18.23;5.70;;;34.60;49.80;;;;;;5125145;27;27376;-60
2021/06/19 14:02:14;;;;;;;16.15;6.03;;;34.70;50.90;;;;;;5124382;27;28124;-59
2021/06/19 14:04:58;;;;;;;19.70;6.18;;;34.70;48.80;;;;;;5124638;27;27388;-60
2021/06/19 14:07:43;;;;;;;22.08;5.53;;;34.70;47.50;;;;;;5121153;27;27368;-59
2021/06/19 14:10:28;;;;;;;18.05;5.40;;;34.60;48.80;;;;;;5124172;27;27319;-59
2021/06/19 14:13:13;;;;;;;11.48;5.15;;;34.70;49.60;;;;;;5124905;27;27315;-59
2021/06/19 14:15:58;;;;;;;11.25;5.32;;;34.70;50.00;;;;;;5124524;27;27875;-59
2021/06/19 14:18:43;;;;;;;21.95;5.45;;;34.70;48.60;;;;;;5124709;27;27306;-58
2021/06/19 14:21:28;;;;;;;12.13;5.65;;;34.70;48.40;;;;;;5124568;27;27386;-58
2021/06/19 14:24:13;;;;;;;14.57;4.85;;;34.70;49.40;;;;;;5123623;27;27375;-58
2021/06/19 14:27:07;;;;;;;16.08;5.53;;;34.70;49.90;;;;;;5108312;27;27390;-59